createdAt,value
2019-05-09T00:00:37.421Z,59.60
2019-05-09T00:03:28.752Z,60.10
2019-05-09T00:06:23.778Z,59.40
2019-05-09T00:09:13.993Z,59.30
2019-05-09T00:12:05.132Z,59.30
2019-05-09T00:14:58.078Z,59.30
2019-05-09T00:17:49.177Z,59.30
2019-05-09T00:21:07.283Z,59.30
2019-05-09T00:23:58.565Z,59.30
2019-05-09T00:26:53.344Z,59.30
2019-05-09T00:29:47.646Z,59.30
2019-05-09T00:32:44.129Z,59.40
2019-05-09T00:35:39.442Z,59.60
2019-05-09T00:38:43.618Z,59.70
2019-05-09T00:41:34.727Z,59.70
2019-05-09T00:44:28.968Z,60.00
2019-05-09T00:47:25.616Z,59.90
2019-05-09T00:50:16.936Z,60.00
2019-05-09T00:53:08.059Z,60.00
2019-05-09T00:55:59.466Z,60.30
2019-05-09T00:58:53.252Z,60.00
2019-05-09T01:01:46.363Z,60.30
2019-05-09T01:04:37.439Z,60.60
2019-05-09T01:07:34.627Z,60.50
2019-05-09T01:10:25.983Z,60.50
2019-05-09T01:13:19.050Z,60.90
2019-05-09T01:16:09.991Z,61.00
2019-05-09T01:19:03.383Z,60.60
2019-05-09T01:21:58.145Z,60.50
2019-05-09T01:24:49.661Z,60.00
2019-05-09T01:27:43.012Z,60.20
2019-05-09T01:30:33.717Z,60.40
2019-05-09T01:33:58.286Z,60.30
2019-05-09T01:37:09.147Z,60.30
2019-05-09T01:40:00.596Z,60.50
2019-05-09T01:42:53.688Z,60.60
2019-05-09T01:45:46.904Z,60.70
2019-05-09T01:48:37.305Z,61.20
2019-05-09T01:51:29.710Z,60.30
2019-05-09T01:54:25.273Z,59.60
2019-05-09T01:57:23.282Z,59.90
2019-05-09T02:00:15.717Z,60.00
2019-05-09T02:03:06.471Z,59.50
2019-05-09T02:05:58.055Z,59.40
2019-05-09T02:08:54.270Z,60.70
2019-05-09T02:11:45.772Z,60.20
2019-05-09T02:14:55.494Z,60.70
2019-05-09T02:18:05.236Z,60.00
2019-05-09T02:21:03.864Z,60.20
2019-05-09T02:23:53.930Z,61.00
2019-05-09T02:26:45.429Z,60.70
2019-05-09T02:29:37.602Z,61.10
2019-05-09T02:32:29.029Z,61.40
2019-05-09T02:35:31.528Z,61.10
2019-05-09T02:38:20.036Z,61.30
2019-05-09T02:41:10.660Z,60.90
2019-05-09T02:44:01.519Z,60.90
2019-05-09T02:47:09.078Z,61.50
2019-05-09T02:50:00.241Z,61.00
2019-05-09T02:52:51.324Z,60.80
2019-05-09T02:55:42.249Z,61.10
2019-05-09T02:58:39.967Z,60.90
2019-05-09T03:01:49.476Z,62.00
2019-05-09T03:04:41.061Z,61.70
2019-05-09T03:07:53.614Z,61.50
2019-05-09T03:10:48.879Z,60.80
2019-05-09T03:13:39.422Z,61.30
2019-05-09T03:16:31.468Z,61.30
2019-05-09T03:19:22.431Z,61.10
2019-05-09T03:22:20.634Z,61.10
2019-05-09T03:25:11.904Z,61.70
2019-05-09T03:28:09.752Z,61.40
2019-05-09T03:31:01.977Z,61.80
2019-05-09T03:33:53.554Z,60.80
2019-05-09T03:36:44.990Z,60.20
2019-05-09T03:40:00.331Z,60.80
2019-05-09T03:42:51.296Z,60.90
2019-05-09T03:45:48.657Z,60.70
2019-05-09T03:48:47.707Z,60.80
2019-05-09T03:51:48.087Z,61.10
2019-05-09T03:54:38.363Z,60.30
2019-05-09T03:57:37.301Z,60.40
2019-05-09T04:00:29.954Z,60.20
2019-05-09T04:03:24.592Z,60.00
2019-05-09T04:06:18.283Z,59.80
2019-05-09T04:09:29.209Z,59.70
2019-05-09T04:12:22.848Z,59.30
2019-05-09T04:15:19.105Z,59.30
2019-05-09T04:18:10.727Z,58.00
2019-05-09T04:21:20.655Z,57.50
2019-05-09T04:24:14.881Z,56.80
2019-05-09T04:27:17.763Z,56.20
2019-05-09T04:30:09.373Z,56.40
2019-05-09T04:33:15.081Z,55.10
2019-05-09T04:36:08.196Z,56.10
2019-05-09T04:38:59.337Z,55.90
2019-05-09T04:42:03.738Z,54.90
2019-05-09T04:44:57.666Z,55.90
2019-05-09T04:47:47.174Z,55.40
2019-05-09T04:50:38.502Z,56.50
2019-05-09T04:53:48.110Z,56.40
2019-05-09T04:56:41.678Z,53.80
2019-05-09T04:59:34.381Z,55.00
2019-05-09T05:02:42.710Z,53.40
2019-05-09T05:05:48.100Z,55.50
2019-05-09T05:08:37.776Z,54.00
2019-05-09T05:11:29.019Z,54.80
2019-05-09T05:14:28.188Z,54.90
2019-05-09T05:17:20.442Z,53.00
2019-05-09T05:20:15.131Z,52.30
2019-05-09T05:23:15.671Z,52.00
2019-05-09T05:26:09.222Z,52.10
2019-05-09T05:28:59.693Z,52.10
2019-05-09T05:31:58.105Z,53.30
2019-05-09T05:35:07.420Z,54.30
2019-05-09T05:37:59.990Z,53.90
2019-05-09T05:40:51.489Z,49.80
2019-05-09T05:43:44.701Z,49.40
2019-05-09T05:46:58.472Z,50.90
2019-05-09T05:49:50.000Z,52.40
2019-05-09T05:52:42.190Z,51.30
2019-05-09T05:55:37.807Z,51.80
2019-05-09T05:58:48.800Z,52.80
2019-05-09T06:01:39.523Z,52.30
2019-05-09T06:04:30.627Z,50.10
2019-05-09T06:07:22.690Z,50.50
2019-05-09T06:10:32.365Z,52.60
2019-05-09T06:13:27.435Z,50.70
2019-05-09T06:16:18.244Z,50.50
2019-05-09T06:19:10.894Z,51.30
2019-05-09T06:22:21.195Z,52.00
2019-05-09T06:25:19.914Z,51.80
2019-05-09T06:28:07.736Z,50.30
2019-05-09T06:30:59.373Z,48.90
2019-05-09T06:33:58.822Z,48.30
2019-05-09T06:36:49.743Z,49.10
2019-05-09T06:39:41.709Z,49.10
2019-05-09T06:42:33.156Z,48.60
2019-05-09T06:45:53.397Z,47.30
2019-05-09T06:48:45.095Z,46.20
2019-05-09T06:51:38.536Z,49.30
2019-05-09T06:54:41.007Z,49.30
2019-05-09T06:57:42.167Z,49.90
2019-05-09T07:00:48.939Z,50.00
2019-05-09T07:03:42.924Z,49.00
2019-05-09T07:06:51.822Z,47.40
2019-05-09T07:09:55.275Z,48.00
2019-05-09T07:12:48.778Z,48.40
2019-05-09T07:15:43.344Z,49.10
2019-05-09T07:18:35.656Z,49.10
2019-05-09T07:21:28.985Z,48.60
2019-05-09T07:24:20.672Z,47.50
2019-05-09T07:27:12.320Z,47.20
2019-05-09T07:30:07.680Z,46.10
2019-05-09T07:33:13.493Z,47.20
2019-05-09T07:36:05.266Z,46.10
2019-05-09T07:38:58.718Z,47.30
2019-05-09T07:41:51.362Z,46.90
2019-05-09T07:44:48.349Z,47.00
2019-05-09T07:47:35.540Z,46.80
2019-05-09T07:50:27.652Z,46.60
2019-05-09T07:53:20.963Z,46.90
2019-05-09T07:56:11.990Z,46.80
2019-05-09T07:59:04.237Z,45.40
2019-05-09T08:01:58.172Z,44.50
2019-05-09T08:04:49.057Z,45.80
2019-05-09T08:07:39.942Z,45.70
2019-05-09T08:10:38.410Z,46.00
2019-05-09T08:13:39.098Z,44.70
2019-05-09T08:16:28.049Z,46.20
2019-05-09T08:19:20.881Z,43.80
2019-05-09T08:22:13.941Z,42.70
2019-05-09T08:25:04.498Z,44.50
2019-05-09T08:28:00.579Z,44.30
2019-05-09T08:30:54.921Z,44.20
2019-05-09T08:33:49.759Z,44.50
2019-05-09T08:36:47.777Z,44.00
2019-05-09T08:39:38.654Z,44.30
2019-05-09T08:42:49.416Z,43.00
2019-05-09T08:45:41.685Z,41.20
2019-05-09T08:48:33.352Z,42.50
2019-05-09T08:51:47.264Z,44.80
2019-05-09T08:54:49.705Z,40.70
2019-05-09T08:57:40.738Z,41.50
2019-05-09T09:00:32.751Z,42.40
2019-05-09T09:03:32.565Z,42.20
2019-05-09T09:06:29.522Z,42.60
2019-05-09T09:09:21.079Z,43.50
2019-05-09T09:12:25.839Z,43.30
2019-05-09T09:15:07.952Z,43.20
2019-05-09T09:17:58.644Z,43.20
2019-05-09T09:20:58.714Z,42.60
2019-05-09T09:23:50.814Z,41.90
2019-05-09T09:26:42.550Z,42.70
2019-05-09T09:29:37.294Z,43.00
2019-05-09T09:32:38.524Z,42.60
2019-05-09T09:35:28.823Z,42.50
2019-05-09T09:38:20.462Z,39.10
2019-05-09T09:41:18.220Z,40.20
2019-05-09T09:44:09.199Z,39.70
2019-05-09T09:47:01.765Z,42.00
2019-05-09T09:49:55.055Z,41.60
2019-05-09T09:52:45.673Z,41.70
2019-05-09T09:55:38.740Z,41.50
2019-05-09T09:58:30.800Z,41.80
2019-05-09T10:01:31.839Z,41.70
2019-05-09T10:04:28.682Z,41.70
2019-05-09T10:07:21.313Z,41.00
2019-05-09T10:10:13.813Z,42.00
2019-05-09T10:13:10.340Z,42.40
2019-05-09T10:16:47.784Z,41.20
2019-05-09T10:20:00.756Z,41.70
2019-05-09T10:23:00.697Z,41.90
2019-05-09T10:25:46.298Z,42.60
2019-05-09T10:28:40.226Z,42.80
2019-05-09T10:31:39.037Z,39.80
2019-05-09T10:34:32.498Z,40.50
2019-05-09T10:37:24.294Z,41.40
2019-05-09T10:40:16.394Z,42.50
2019-05-09T10:43:29.804Z,40.00
2019-05-09T10:46:30.005Z,40.60
2019-05-09T10:49:19.519Z,41.90
2019-05-09T10:52:14.096Z,42.10
2019-05-09T10:55:05.220Z,41.20
2019-05-09T10:58:01.905Z,42.10
2019-05-09T11:00:49.677Z,41.20
2019-05-09T11:03:48.000Z,41.20
2019-05-09T11:06:41.721Z,41.40
2019-05-09T11:09:33.301Z,40.80
2019-05-09T11:12:24.782Z,39.90
2019-05-09T11:15:19.622Z,38.50
2019-05-09T11:18:18.376Z,39.90
2019-05-09T11:21:14.152Z,41.30
2019-05-09T11:24:10.279Z,41.40
2019-05-09T11:27:08.528Z,42.40
2019-05-09T11:30:03.595Z,41.80
2019-05-09T11:32:54.595Z,42.50
2019-05-09T11:35:47.970Z,42.20
2019-05-09T11:38:54.246Z,41.50
2019-05-09T11:41:49.122Z,42.30
2019-05-09T11:44:41.369Z,42.30
2019-05-09T11:47:45.834Z,41.40
2019-05-09T11:50:34.562Z,41.00
2019-05-09T11:53:28.597Z,42.00
2019-05-09T11:56:18.830Z,42.10
2019-05-09T11:59:18.947Z,42.40
2019-05-09T12:02:11.591Z,42.20
2019-05-09T12:05:08.506Z,42.50
2019-05-09T12:08:00.447Z,42.20
2019-05-09T12:10:53.422Z,42.90
2019-05-09T12:13:44.039Z,42.20
2019-05-09T12:16:37.954Z,43.20
2019-05-09T12:19:42.287Z,43.10
2019-05-09T12:22:33.351Z,43.80
2019-05-09T12:25:33.372Z,43.20
2019-05-09T12:28:24.989Z,43.40
2019-05-09T12:31:23.994Z,43.90
2019-05-09T12:34:19.346Z,44.10
2019-05-09T12:37:09.648Z,44.50
2019-05-09T12:40:01.605Z,44.10
2019-05-09T12:42:53.935Z,44.80
2019-05-09T12:45:47.825Z,44.50
2019-05-09T12:48:38.582Z,44.60
2019-05-09T12:51:33.419Z,44.60
2019-05-09T12:54:24.210Z,44.90
2019-05-09T12:57:19.246Z,44.70
2019-05-09T13:00:09.729Z,44.40
2019-05-09T13:03:02.365Z,44.40
2019-05-09T13:05:57.478Z,44.30
2019-05-09T13:08:48.932Z,44.90
2019-05-09T13:11:40.321Z,44.70
2019-05-09T13:14:31.873Z,45.00
2019-05-09T13:17:30.763Z,44.60
2019-05-09T13:20:22.290Z,45.20
2019-05-09T13:23:14.408Z,45.30
2019-05-09T13:26:08.265Z,44.70
2019-05-09T13:28:59.771Z,45.20
2019-05-09T13:31:52.871Z,45.10
2019-05-09T13:34:48.437Z,45.30
2019-05-09T13:52:43.533Z,44.70
2019-05-09T13:55:38.130Z,45.50
2019-05-09T13:58:31.985Z,45.80
2019-05-09T14:01:23.240Z,45.40
2019-05-09T14:04:14.745Z,46.30
2019-05-09T14:07:08.326Z,45.80
2019-05-09T14:10:00.319Z,45.60
2019-05-09T14:13:05.328Z,46.40
2019-05-09T14:15:44.487Z,46.40
2019-05-09T14:18:38.398Z,46.20
2019-05-09T14:21:32.671Z,45.80
2019-05-09T14:24:24.495Z,46.00
2019-05-09T14:27:18.715Z,45.20
2019-05-09T14:30:09.497Z,44.60
2019-05-09T14:33:02.601Z,44.60
2019-05-09T14:35:54.270Z,45.10
2019-05-09T14:38:57.998Z,44.90
2019-05-09T14:41:48.976Z,45.00
2019-05-09T14:45:01.762Z,45.80
2019-05-09T14:47:53.189Z,45.50
2019-05-09T14:53:31.373Z,45.40
2019-05-09T14:56:22.864Z,46.10
2019-05-09T14:59:14.807Z,46.70
2019-05-09T15:02:08.847Z,46.20
2019-05-09T15:04:59.712Z,47.70
2019-05-09T15:07:58.918Z,46.90
2019-05-09T15:10:49.672Z,46.40
2019-05-09T15:25:57.966Z,46.40
2019-05-09T15:28:48.516Z,47.20
2019-05-09T15:31:40.967Z,47.60
2019-05-09T15:34:34.390Z,48.10
2019-05-09T15:37:28.377Z,48.40
2019-05-09T15:40:18.810Z,48.00
2019-05-09T15:43:13.930Z,48.10
2019-05-09T15:46:19.093Z,48.80
2019-05-09T15:49:14.165Z,48.40
2019-05-09T15:52:07.415Z,48.80
2019-05-09T15:54:59.448Z,47.90
2019-05-09T15:57:51.243Z,48.60
2019-05-09T16:00:43.234Z,48.50
2019-05-09T16:03:35.203Z,47.90
2019-05-09T16:06:32.574Z,48.30
2019-05-09T16:09:20.210Z,47.90
2019-05-09T16:12:11.828Z,48.20
2019-05-09T16:15:03.608Z,48.70
2019-05-09T16:17:58.356Z,48.90
2019-05-09T16:20:50.059Z,48.50
2019-05-09T16:23:42.182Z,48.10
2019-05-09T16:26:34.782Z,48.60
2019-05-09T16:29:30.510Z,48.20
2019-05-09T16:32:19.164Z,48.80
2019-05-09T16:35:11.746Z,48.80
2019-05-09T16:38:07.913Z,48.20
2019-05-09T16:40:58.298Z,48.80
2019-05-09T16:43:51.112Z,48.40
2019-05-09T16:46:44.229Z,49.80
2019-05-09T16:49:38.656Z,49.40
2019-05-09T16:52:29.907Z,48.60
2019-05-09T16:55:31.211Z,48.70
2019-05-09T16:58:32.340Z,48.90
2019-05-09T17:01:23.748Z,48.90
2019-05-09T17:04:18.871Z,48.40
2019-05-09T17:07:08.374Z,49.10
2019-05-09T17:10:01.051Z,48.50
2019-05-09T17:12:52.324Z,48.10
2019-05-09T17:15:43.549Z,47.70
2019-05-09T17:18:34.863Z,47.70
2019-05-09T17:21:42.734Z,48.00
2019-05-09T17:24:52.360Z,48.40
2019-05-09T17:27:44.973Z,49.00
2019-05-09T17:30:38.347Z,49.70
2019-05-09T17:33:29.705Z,50.70
2019-05-09T17:36:25.487Z,51.00
2019-05-09T17:39:27.791Z,50.40
2019-05-09T17:42:19.275Z,51.30
2019-05-09T17:45:18.283Z,50.10
2019-05-09T17:48:09.739Z,50.10
2019-05-09T17:51:01.194Z,50.60
2019-05-09T17:53:53.147Z,50.50
2019-05-09T17:56:45.348Z,50.40
2019-05-09T17:59:38.993Z,50.20
2019-05-09T18:02:29.159Z,50.50
2019-05-09T18:05:21.418Z,50.50
2019-05-09T18:08:12.709Z,51.00
2019-05-09T18:11:08.700Z,51.00
2019-05-09T18:13:59.181Z,51.80
2019-05-09T18:16:51.710Z,51.70
2019-05-09T18:19:42.848Z,51.70
2019-05-09T18:22:33.927Z,51.60
2019-05-09T18:25:26.047Z,52.10
2019-05-09T18:28:19.552Z,52.50
2019-05-09T18:31:10.853Z,52.30
2019-05-09T18:34:04.211Z,52.70
2019-05-09T18:36:55.338Z,52.50
2019-05-09T18:39:48.420Z,52.90
2019-05-09T18:42:41.337Z,52.40
2019-05-09T18:45:32.604Z,52.80
2019-05-09T18:48:24.614Z,52.90
2019-05-09T18:51:16.274Z,53.20
2019-05-09T18:54:08.526Z,52.90
2019-05-09T18:56:59.880Z,53.90
2019-05-09T18:59:51.456Z,53.80
2019-05-09T19:02:55.716Z,53.90
2019-05-09T19:05:53.374Z,54.00
2019-05-09T19:08:44.670Z,52.90
2019-05-09T19:11:53.875Z,52.60
2019-05-09T19:14:48.906Z,53.20
2019-05-09T19:17:57.060Z,52.10
2019-05-09T19:24:22.174Z,54.10
2019-05-09T19:27:14.325Z,54.40
2019-05-09T19:30:06.513Z,55.00
2019-05-09T19:32:59.719Z,55.60
2019-05-09T19:35:57.071Z,54.10
2019-05-09T19:38:48.489Z,54.10
2019-05-09T19:41:40.332Z,55.00
2019-05-09T19:44:47.719Z,55.40
2019-05-09T19:47:42.546Z,56.10
2019-05-09T19:50:34.567Z,56.30
2019-05-09T19:53:25.841Z,56.40
2019-05-09T19:56:16.861Z,56.60
2019-05-09T19:59:08.641Z,56.80
2019-05-09T20:02:00.215Z,56.60
2019-05-09T20:04:56.347Z,56.10
2019-05-09T20:07:47.809Z,56.00
2019-05-09T20:10:55.884Z,56.20
2019-05-09T20:14:15.667Z,56.50
2019-05-09T20:17:07.211Z,56.00
2019-05-09T20:20:04.647Z,55.80
2019-05-09T20:22:56.107Z,55.70
2019-05-09T20:25:48.032Z,55.70
2019-05-09T20:28:43.584Z,55.70
2019-05-09T20:31:34.729Z,55.70
2019-05-09T20:34:26.952Z,55.50
2019-05-09T20:37:18.835Z,55.60
2019-05-09T20:40:11.170Z,55.90
2019-05-09T20:43:02.870Z,56.00
2019-05-09T20:45:56.275Z,55.60
2019-05-09T20:48:48.147Z,55.80
2019-05-09T20:51:42.565Z,55.60
2019-05-09T20:54:34.708Z,55.70
2019-05-09T20:57:26.497Z,56.20
2019-05-09T21:00:18.288Z,56.30
2019-05-09T21:03:10.351Z,56.70
2019-05-09T21:06:02.049Z,56.40
2019-05-09T21:08:53.549Z,56.90
2019-05-09T21:11:46.283Z,57.40
2019-05-09T21:14:42.133Z,57.20
2019-05-09T21:17:34.045Z,57.20
2019-05-09T21:20:26.243Z,57.40
2019-05-09T21:23:24.624Z,57.70
2019-05-09T21:26:10.592Z,57.90
2019-05-09T21:29:02.983Z,58.20
2019-05-09T21:31:56.308Z,58.40
2019-05-09T21:34:51.544Z,58.20
2019-05-09T21:37:43.116Z,58.40
2019-05-09T21:40:34.178Z,58.40
2019-05-09T21:43:26.014Z,58.70
2019-05-09T21:46:20.423Z,58.50
2019-05-09T21:49:11.932Z,58.50
2019-05-09T21:52:03.766Z,58.60
2019-05-09T21:54:56.357Z,58.60
2019-05-09T21:57:52.683Z,58.60
2019-05-09T22:00:45.886Z,58.50
2019-05-09T22:03:37.215Z,58.60
2019-05-09T22:06:29.758Z,58.60
2019-05-09T22:09:21.215Z,58.60
2019-05-09T22:12:13.568Z,58.50
2019-05-09T22:15:04.956Z,59.20
2019-05-09T22:17:58.932Z,58.60
2019-05-09T22:20:50.823Z,58.70
2019-05-09T22:23:55.454Z,58.80
2019-05-09T22:26:34.571Z,58.90
2019-05-09T22:29:29.315Z,59.00
2019-05-09T22:32:31.675Z,59.00
2019-05-09T22:35:25.629Z,59.20
2019-05-09T22:38:17.210Z,59.10
2019-05-09T22:41:13.334Z,59.60
2019-05-09T22:44:04.957Z,59.40
2019-05-09T22:46:58.167Z,59.50
2019-05-09T22:49:52.601Z,59.10
2019-05-09T22:52:42.258Z,59.00
2019-05-09T22:55:33.701Z,59.10
2019-05-09T22:58:25.594Z,59.10
2019-05-09T23:01:17.272Z,59.00
2019-05-09T23:04:08.872Z,59.10
2019-05-09T23:07:01.087Z,59.10
2019-05-09T23:09:53.607Z,59.00
2019-05-09T23:12:44.539Z,58.90
2019-05-09T23:15:36.056Z,58.50
2019-05-09T23:18:29.484Z,58.50
2019-05-09T23:21:21.398Z,58.50
2019-05-09T23:24:27.541Z,58.50
2019-05-09T23:27:09.143Z,58.50
2019-05-09T23:30:00.980Z,58.40
2019-05-09T23:32:52.991Z,58.30
2019-05-09T23:35:44.291Z,58.10
2019-05-09T23:38:37.181Z,58.40
2019-05-09T23:41:46.514Z,58.60
2019-05-09T23:44:38.549Z,58.80
2019-05-09T23:47:29.451Z,58.90
2019-05-09T23:50:26.487Z,58.70
2019-05-09T23:53:20.379Z,58.70
2019-05-09T23:56:28.400Z,58.70
2019-05-09T23:59:36.291Z,58.30
